Terminal Aerodrome Forecast
Issued by NWS Sioux Falls, SD

Home | Current Version | Previous Version | Graphics & Text | Print | Product List | Glossary Off
Versions: 1 2 3 4 5 6 7 8 9 10 11 12 13 14 15 16 17 18

000
FTUS43 KFSD 242232 AAB
TAFFSD
TAF AMD
KFSD 242232Z 2423/2518 15011KT P6SM OVC007
     FM250300 18008KT 4SM BR OVC007
     FM251100 30014KT P6SM SCT025
     FM251600 31018G25KT P6SM BKN030=

USA.gov is the U.S. government's official web portal to all federal, state and local government web resources and services.